Time;durP1;ratioP1;P1;durP2;ratioP2;P2;SDS_P1;SDS_P2;PMS_P1;PMS_P2;Temp;Humidity;BMP_temperature;BMP_pressure;BME280_temperature;BME280_humidity;BME280_pressure;Samples;Min_cycle;Max_cycle;Signal;HPM_P1;HPM_P2
2022/04/17 00:00:50;;;;;;;8.60;5.65;;;;;;;;;;5072919;28;20040;-79
2022/04/17 00:03:16;;;;;;;9.85;6.00;;;;;;;;;;5066644;28;20063;-80
2022/04/17 00:05:42;;;;;;;8.85;5.78;;;;;;;;;;5073399;28;20097;-79
2022/04/17 00:08:08;;;;;;;10.07;5.45;;;;;;;;;;5071714;28;20052;-80
2022/04/17 00:10:34;;;;;;;10.43;6.40;;;;;;;;;;5069215;28;20127;-79
2022/04/17 00:13:00;;;;;;;10.68;6.10;;;;;;;;;;5071146;28;20059;-79
2022/04/17 00:15:26;;;;;;;8.50;6.03;;;;;;;;;;5073643;28;20100;-79
2022/04/17 00:17:52;;;;;;;9.45;6.22;;;;;;;;;;5065732;28;20045;-80
2022/04/17 00:20:19;;;;;;;10.30;6.38;;;;;;;;;;5067782;28;20097;-80
2022/04/17 00:22:45;;;;;;;10.20;6.10;;;;;;;;;;5069405;28;20068;-80
2022/04/17 00:25:16;;;;;;;10.60;6.43;;;;;;;;;;5064941;28;20063;-79
2022/04/17 00:27:42;;;;;;;10.48;6.05;;;;;;;;;;5059460;28;20041;-80
2022/04/17 00:30:09;;;;;;;9.52;6.32;;;;;;;;;;5067424;28;20045;-78
2022/04/17 00:32:36;;;;;;;9.70;6.70;;;;;;;;;;5062683;28;20052;-78
2022/04/17 00:35:03;;;;;;;9.85;6.05;;;;;;;;;;5085213;28;20048;-79
2022/04/17 00:37:29;;;;;;;9.90;7.00;;;;;;;;;;5057836;28;20040;-80
2022/04/17 00:39:55;;;;;;;9.52;6.55;;;;;;;;;;5056281;28;20052;-80
2022/04/17 00:42:22;;;;;;;12.07;6.75;;;;;;;;;;5058827;28;20068;-80
2022/04/17 00:44:48;;;;;;;10.23;7.05;;;;;;;;;;5070092;28;20041;-80
2022/04/17 00:47:17;;;;;;;11.90;6.93;;;;;;;;;;5049141;28;20045;-81
2022/04/17 00:49:46;;;;;;;10.52;6.57;;;;;;;;;;5036307;28;20096;-80
2022/04/17 00:52:13;;;;;;;12.13;6.88;;;;;;;;;;5046384;28;20037;-79
2022/04/17 00:54:43;;;;;;;10.88;7.25;;;;;;;;;;5038895;28;20037;-79
2022/04/17 00:57:11;;;;;;;11.23;6.82;;;;;;;;;;5066315;28;20045;-79
2022/04/17 00:59:37;;;;;;;10.90;7.18;;;;;;;;;;5052429;28;20049;-79
2022/04/17 01:02:06;;;;;;;12.18;7.28;;;;;;;;;;5061476;28;20068;-79
2022/04/17 01:04:32;;;;;;;12.65;7.45;;;;;;;;;;5051672;28;20112;-79
2022/04/17 01:06:58;;;;;;;11.30;7.40;;;;;;;;;;5030983;28;20056;-79
2022/04/17 01:09:24;;;;;;;12.32;6.93;;;;;;;;;;5067143;28;20426;-80
2022/04/17 01:11:51;;;;;;;11.95;7.47;;;;;;;;;;5055997;28;20037;-79
2022/04/17 01:14:20;;;;;;;11.02;7.88;;;;;;;;;;5068187;28;20048;-79
2022/04/17 01:16:46;;;;;;;11.23;7.57;;;;;;;;;;5069072;28;20063;-80
2022/04/17 01:19:13;;;;;;;11.23;7.70;;;;;;;;;;5067114;28;20055;-80
2022/04/17 01:21:43;;;;;;;10.80;7.65;;;;;;;;;;5066287;28;20091;-79
2022/04/17 01:26:58;;;;;;;13.00;7.93;;;;;;;;;;5067566;28;20124;-79
2022/04/17 01:29:28;;;;;;;12.13;7.82;;;;;;;;;;5047303;28;20086;-79
2022/04/17 01:31:54;;;;;;;11.95;8.00;;;;;;;;;;5056658;28;20049;-79
2022/04/17 01:34:21;;;;;;;12.27;7.97;;;;;;;;;;5066264;28;20044;-79
2022/04/17 01:36:49;;;;;;;14.23;8.88;;;;;;;;;;5065876;28;20466;-79
2022/04/17 01:39:15;;;;;;;11.93;8.40;;;;;;;;;;5066732;28;20049;-79
2022/04/17 01:41:41;;;;;;;13.07;8.25;;;;;;;;;;5064547;28;20044;-79
2022/04/17 01:44:07;;;;;;;11.50;7.65;;;;;;;;;;5068692;28;20056;-79
2022/04/17 01:46:33;;;;;;;13.98;8.02;;;;;;;;;;5068520;28;20041;-79
2022/04/17 01:49:00;;;;;;;12.20;8.00;;;;;;;;;;5067592;28;20068;-79
2022/04/17 01:51:26;;;;;;;11.25;7.93;;;;;;;;;;5064825;28;20045;-78
2022/04/17 01:53:52;;;;;;;13.43;8.45;;;;;;;;;;5044415;28;20124;-79
2022/04/17 01:56:18;;;;;;;12.48;8.23;;;;;;;;;;5032848;28;20108;-79
2022/04/17 01:58:44;;;;;;;11.55;8.45;;;;;;;;;;5053888;28;20045;-79
2022/04/17 02:01:11;;;;;;;11.77;8.32;;;;;;;;;;5057667;28;20043;-79
2022/04/17 02:03:37;;;;;;;13.30;8.52;;;;;;;;;;5067191;28;21321;-80
2022/04/17 02:06:03;;;;;;;12.10;8.60;;;;;;;;;;5048575;28;20041;-80
2022/04/17 02:08:29;;;;;;;12.23;8.27;;;;;;;;;;5044064;28;20686;-79
2022/04/17 02:10:55;;;;;;;14.90;8.93;;;;;;;;;;5067647;28;20079;-79
2022/04/17 02:13:23;;;;;;;12.82;9.00;;;;;;;;;;5064422;28;20104;-80
2022/04/17 02:15:53;;;;;;;14.82;8.35;;;;;;;;;;5071056;28;20099;-80
2022/04/17 02:18:20;;;;;;;13.68;8.57;;;;;;;;;;5067486;28;20052;-79
2022/04/17 02:20:47;;;;;;;13.18;9.10;;;;;;;;;;5068834;28;20051;-80
2022/04/17 02:23:13;;;;;;;12.45;8.48;;;;;;;;;;5074064;28;20036;-80
2022/04/17 02:25:39;;;;;;;13.38;8.90;;;;;;;;;;5052864;28;20048;-79
2022/04/17 02:28:05;;;;;;;14.48;9.52;;;;;;;;;;5070092;28;20055;-81
2022/04/17 02:30:31;;;;;;;13.60;9.10;;;;;;;;;;5064614;28;20037;-80
2022/04/17 02:32:57;;;;;;;14.90;9.23;;;;;;;;;;5066232;28;20045;-79
2022/04/17 02:35:23;;;;;;;12.40;9.07;;;;;;;;;;5067074;28;20312;-79
2022/04/17 02:37:49;;;;;;;17.52;9.05;;;;;;;;;;5064890;28;20040;-80
2022/04/17 02:40:17;;;;;;;15.23;9.55;;;;;;;;;;5070297;28;20063;-81
2022/04/17 02:42:43;;;;;;;15.55;9.35;;;;;;;;;;5065588;28;20041;-80
2022/04/17 02:45:10;;;;;;;17.30;9.25;;;;;;;;;;5064778;28;20041;-80
2022/04/17 02:47:45;;;;;;;15.30;9.23;;;;;;;;;;5063538;28;20041;-80
2022/04/17 02:50:11;;;;;;;14.40;9.48;;;;;;;;;;5046430;28;20044;-80
2022/04/17 02:52:37;;;;;;;14.25;8.90;;;;;;;;;;5062661;28;20112;-80
2022/04/17 02:55:04;;;;;;;14.05;9.15;;;;;;;;;;5079186;28;20056;-80
2022/04/17 02:57:30;;;;;;;13.45;9.60;;;;;;;;;;5047507;28;20041;-80
2022/04/17 03:00:00;;;;;;;15.48;9.18;;;;;;;;;;5060562;28;20107;-80
2022/04/17 03:07:58;;;;;;;14.50;9.30;;;;;;;;;;5060024;28;20104;-80
2022/04/17 03:10:25;;;;;;;14.63;9.68;;;;;;;;;;5048033;28;20489;-80
2022/04/17 03:12:51;;;;;;;15.43;10.20;;;;;;;;;;5056276;28;20087;-80
2022/04/17 03:15:17;;;;;;;14.60;9.57;;;;;;;;;;5029991;28;20076;-80
2022/04/17 03:17:43;;;;;;;15.50;9.70;;;;;;;;;;5062174;28;20052;-79
2022/04/17 03:20:09;;;;;;;14.18;9.73;;;;;;;;;;5061363;28;20073;-80
2022/04/17 03:22:35;;;;;;;13.50;9.88;;;;;;;;;;5069424;28;20041;-79
2022/04/17 03:25:02;;;;;;;17.02;10.15;;;;;;;;;;5067910;28;20110;-79
2022/04/17 03:27:28;;;;;;;14.00;10.15;;;;;;;;;;5067194;28;20049;-80
2022/04/17 03:29:55;;;;;;;15.35;10.07;;;;;;;;;;5067758;28;20071;-80
2022/04/17 03:32:21;;;;;;;14.77;10.02;;;;;;;;;;5065869;28;20090;-80
2022/04/17 03:34:47;;;;;;;14.68;10.48;;;;;;;;;;5060264;28;20077;-79
2022/04/17 03:37:16;;;;;;;14.05;10.15;;;;;;;;;;5060839;28;20037;-79
2022/04/17 03:39:42;;;;;;;14.90;10.45;;;;;;;;;;5053950;28;20041;-80
2022/04/17 03:42:08;;;;;;;13.52;9.73;;;;;;;;;;5059367;28;20056;-80
2022/04/17 03:44:35;;;;;;;15.45;10.45;;;;;;;;;;5054501;28;20049;-79
2022/04/17 03:47:01;;;;;;;15.80;10.45;;;;;;;;;;5066842;28;20052;-79
2022/04/17 03:49:29;;;;;;;15.15;9.82;;;;;;;;;;5042831;28;20073;-80
2022/04/17 03:51:55;;;;;;;16.55;10.73;;;;;;;;;;5057285;28;20046;-80
2022/04/17 03:54:21;;;;;;;15.43;10.57;;;;;;;;;;5077633;28;20040;-78
2022/04/17 03:56:47;;;;;;;15.68;10.43;;;;;;;;;;5074227;28;20494;-80
2022/04/17 03:59:14;;;;;;;13.65;10.75;;;;;;;;;;5072320;28;20075;-80
2022/04/17 04:01:40;;;;;;;19.02;10.68;;;;;;;;;;5071349;28;20037;-80
2022/04/17 04:04:06;;;;;;;17.25;10.23;;;;;;;;;;5066363;28;20025;-79
2022/04/17 04:06:35;;;;;;;12.90;9.93;;;;;;;;;;5055550;28;20045;-80
2022/04/17 04:09:02;;;;;;;18.23;11.57;;;;;;;;;;5045956;28;20049;-80
2022/04/17 04:11:28;;;;;;;16.02;10.13;;;;;;;;;;5073503;28;20371;-79
2022/04/17 04:13:54;;;;;;;17.42;10.43;;;;;;;;;;5071656;28;20052;-80
2022/04/17 04:16:20;;;;;;;14.98;10.15;;;;;;;;;;5072833;28;20041;-81
2022/04/17 04:18:46;;;;;;;12.93;10.15;;;;;;;;;;5075043;28;20045;-79
2022/04/17 04:21:12;;;;;;;15.70;10.70;;;;;;;;;;5071615;28;20101;-80
2022/04/17 04:23:41;;;;;;;14.40;10.82;;;;;;;;;;5071672;28;20060;-79
2022/04/17 04:26:07;;;;;;;15.63;11.27;;;;;;;;;;5064464;28;20061;-80
2022/04/17 04:28:34;;;;;;;14.82;9.98;;;;;;;;;;5065331;28;20101;-79
2022/04/17 04:31:00;;;;;;;13.60;10.65;;;;;;;;;;5072637;28;20491;-79
2022/04/17 04:33:27;;;;;;;15.57;10.88;;;;;;;;;;5066083;28;20041;-79
2022/04/17 04:35:53;;;;;;;19.38;11.07;;;;;;;;;;5071322;28;20048;-78
2022/04/17 04:38:19;;;;;;;15.25;10.77;;;;;;;;;;5072150;28;20043;-80
2022/04/17 04:40:45;;;;;;;16.23;11.25;;;;;;;;;;5066916;28;20087;-80
2022/04/17 04:43:12;;;;;;;15.13;11.05;;;;;;;;;;5066500;28;20037;-80
2022/04/17 04:51:08;;;;;;;17.13;11.18;;;;;;;;;;5069739;28;20057;-80
2022/04/17 04:53:34;;;;;;;17.77;10.80;;;;;;;;;;5065726;28;20047;-80
2022/04/17 04:56:00;;;;;;;16.95;11.40;;;;;;;;;;5053339;28;20077;-81
2022/04/17 04:58:26;;;;;;;15.82;11.43;;;;;;;;;;5046496;28;20406;-80
2022/04/17 05:00:52;;;;;;;15.23;11.02;;;;;;;;;;5068043;28;20075;-80
2022/04/17 05:03:18;;;;;;;18.92;10.82;;;;;;;;;;5063631;28;20037;-80
2022/04/17 05:05:44;;;;;;;17.20;11.73;;;;;;;;;;5070218;28;20045;-79
2022/04/17 05:08:10;;;;;;;15.65;11.32;;;;;;;;;;5071941;28;20415;-80
2022/04/17 05:10:36;;;;;;;17.80;11.82;;;;;;;;;;5051774;28;20053;-80
2022/04/17 05:13:02;;;;;;;16.85;11.30;;;;;;;;;;5069187;28;20045;-80
2022/04/17 05:15:28;;;;;;;17.65;11.70;;;;;;;;;;5072328;28;20207;-79
2022/04/17 05:17:54;;;;;;;14.80;11.35;;;;;;;;;;5071094;28;20049;-79
2022/04/17 05:20:20;;;;;;;16.98;11.18;;;;;;;;;;5054932;28;20048;-79
2022/04/17 05:22:50;;;;;;;16.45;11.02;;;;;;;;;;5052677;28;20112;-80
2022/04/17 05:25:16;;;;;;;16.75;11.30;;;;;;;;;;5072797;28;20053;-80
2022/04/17 05:27:42;;;;;;;18.13;11.20;;;;;;;;;;5055791;28;20045;-79
2022/04/17 05:30:08;;;;;;;16.75;11.23;;;;;;;;;;5074961;28;20033;-80
2022/04/17 05:32:34;;;;;;;14.70;10.95;;;;;;;;;;5071192;28;20037;-80
2022/04/17 05:35:00;;;;;;;15.60;11.40;;;;;;;;;;5070310;28;20044;-80
2022/04/17 05:37:27;;;;;;;15.75;11.32;;;;;;;;;;5068940;28;20127;-80
2022/04/17 05:39:53;;;;;;;15.60;10.90;;;;;;;;;;5070379;28;20049;-79
2022/04/17 05:42:19;;;;;;;15.45;10.85;;;;;;;;;;5061092;28;20075;-81
2022/04/17 05:44:49;;;;;;;17.23;10.93;;;;;;;;;;5071160;28;20513;-80
2022/04/17 05:47:15;;;;;;;16.02;11.15;;;;;;;;;;5070268;28;20527;-80
2022/04/17 05:49:41;;;;;;;14.65;11.35;;;;;;;;;;5070749;28;20020;-81
2022/04/17 05:52:07;;;;;;;15.85;11.25;;;;;;;;;;5070754;28;20045;-81
2022/04/17 05:54:34;;;;;;;15.18;11.52;;;;;;;;;;5059243;28;20053;-80
2022/04/17 05:57:01;;;;;;;15.50;11.43;;;;;;;;;;5063993;28;20041;-81
2022/04/17 05:59:27;;;;;;;14.50;11.20;;;;;;;;;;5058724;28;20037;-81
2022/04/17 06:01:53;;;;;;;14.45;10.88;;;;;;;;;;5061510;28;20064;-81
2022/04/17 06:04:19;;;;;;;13.88;11.75;;;;;;;;;;5063106;28;20044;-82
2022/04/17 06:06:45;;;;;;;14.60;11.68;;;;;;;;;;5071375;28;20045;-79
2022/04/17 06:09:11;;;;;;;15.30;11.80;;;;;;;;;;5070435;28;20041;-80
2022/04/17 06:11:37;;;;;;;16.17;11.52;;;;;;;;;;5068076;28;20037;-80
2022/04/17 06:14:03;;;;;;;14.60;11.18;;;;;;;;;;5071557;28;20048;-81
2022/04/17 06:16:29;;;;;;;13.02;10.27;;;;;;;;;;5072711;28;20105;-81
2022/04/17 06:18:55;;;;;;;13.88;11.50;;;;;;;;;;5069278;28;20048;-81
2022/04/17 06:21:21;;;;;;;14.00;11.07;;;;;;;;;;5043711;28;20044;-81
2022/04/17 06:23:47;;;;;;;15.70;11.40;;;;;;;;;;5071710;28;20048;-81
2022/04/17 06:26:14;;;;;;;14.82;11.15;;;;;;;;;;5069289;28;20052;-80
2022/04/17 06:28:40;;;;;;;17.50;11.13;;;;;;;;;;5069013;28;20045;-81
2022/04/17 06:31:07;;;;;;;17.02;11.07;;;;;;;;;;5074677;28;20100;-80
2022/04/17 06:33:33;;;;;;;14.10;11.00;;;;;;;;;;5069902;28;20060;-80
2022/04/17 06:35:59;;;;;;;13.77;10.75;;;;;;;;;;5063066;28;20048;-80
2022/04/17 06:38:26;;;;;;;15.27;11.23;;;;;;;;;;5067066;28;20049;-81
2022/04/17 06:40:52;;;;;;;19.33;11.13;;;;;;;;;;5063261;28;20046;-81
2022/04/17 06:43:18;;;;;;;13.48;10.50;;;;;;;;;;5072222;28;20025;-80
2022/04/17 06:45:44;;;;;;;15.60;11.57;;;;;;;;;;5066888;28;20124;-81
2022/04/17 06:48:23;;;;;;;14.45;10.50;;;;;;;;;;5063104;28;20050;-81
2022/04/17 06:50:50;;;;;;;16.35;11.52;;;;;;;;;;5050875;28;20048;-82
2022/04/17 06:53:16;;;;;;;14.75;10.80;;;;;;;;;;5060779;28;20068;-81
2022/04/17 06:55:42;;;;;;;14.13;11.25;;;;;;;;;;5058276;28;20037;-81
2022/04/17 06:58:08;;;;;;;14.20;10.88;;;;;;;;;;5073631;28;20037;-81
2022/04/17 07:00:36;;;;;;;15.40;10.70;;;;;;;;;;5056280;28;20037;-81
2022/04/17 07:03:02;;;;;;;14.77;10.77;;;;;;;;;;5070637;28;20053;-81
2022/04/17 07:05:28;;;;;;;13.85;9.82;;;;;;;;;;5042597;28;20025;-82
2022/04/17 07:08:02;;;;;;;13.13;10.18;;;;;;;;;;5071082;28;20049;-79
2022/04/17 07:10:29;;;;;;;13.18;9.50;;;;;;;;;;5072521;28;20047;-79
2022/04/17 07:12:56;;;;;;;13.10;10.32;;;;;;;;;;5070012;28;20029;-81
2022/04/17 07:15:25;;;;;;;12.52;9.73;;;;;;;;;;5062345;28;20032;-80
2022/04/17 07:17:52;;;;;;;13.10;10.23;;;;;;;;;;5058100;28;20028;-80
2022/04/17 07:20:18;;;;;;;11.30;9.80;;;;;;;;;;5070942;28;20037;-80
2022/04/17 07:22:45;;;;;;;12.25;9.70;;;;;;;;;;5066909;28;20045;-81
2022/04/17 07:25:12;;;;;;;13.90;10.10;;;;;;;;;;5059496;28;20049;-82
2022/04/17 07:27:51;;;;;;;12.13;9.75;;;;;;;;;;5072615;28;20044;-81
2022/04/17 07:30:21;;;;;;;13.02;9.60;;;;;;;;;;5060422;28;20041;-80
2022/04/17 07:32:48;;;;;;;12.00;9.00;;;;;;;;;;5069924;28;20066;-80
2022/04/17 07:35:16;;;;;;;13.75;9.85;;;;;;;;;;5072212;28;20052;-80
2022/04/17 07:37:46;;;;;;;13.20;9.68;;;;;;;;;;5075937;28;20049;-81
2022/04/17 07:40:18;;;;;;;12.30;8.73;;;;;;;;;;5072524;28;20045;-79
2022/04/17 07:42:44;;;;;;;11.60;8.95;;;;;;;;;;5076145;28;20558;-81
2022/04/17 07:45:11;;;;;;;11.77;9.13;;;;;;;;;;5072818;28;20045;-81
2022/04/17 07:47:37;;;;;;;11.30;9.02;;;;;;;;;;5077518;28;20124;-81
2022/04/17 07:50:05;;;;;;;12.15;8.70;;;;;;;;;;5064068;28;20049;-80
2022/04/17 07:52:31;;;;;;;14.63;8.32;;;;;;;;;;5048272;28;20080;-81
2022/04/17 07:54:57;;;;;;;12.02;8.23;;;;;;;;;;5053670;28;20037;-81
2022/04/17 07:57:23;;;;;;;12.18;8.60;;;;;;;;;;5055828;28;20124;-81
2022/04/17 07:59:50;;;;;;;11.85;8.85;;;;;;;;;;5071219;28;20045;-81
2022/04/17 08:02:28;;;;;;;13.48;8.75;;;;;;;;;;5073008;28;20049;-81
2022/04/17 08:04:54;;;;;;;11.40;7.70;;;;;;;;;;5065529;28;20137;-80
2022/04/17 08:07:20;;;;;;;11.63;7.60;;;;;;;;;;5060307;28;20033;-79
2022/04/17 08:09:47;;;;;;;11.63;7.50;;;;;;;;;;5067068;28;20060;-80
2022/04/17 08:12:13;;;;;;;11.27;7.70;;;;;;;;;;5070530;28;20020;-80
2022/04/17 08:14:39;;;;;;;11.07;7.65;;;;;;;;;;5071168;28;20052;-81
2022/04/17 08:17:05;;;;;;;10.23;7.32;;;;;;;;;;5070087;28;20041;-81
2022/04/17 08:19:35;;;;;;;9.95;7.38;;;;;;;;;;5072217;28;20542;-80
2022/04/17 08:22:02;;;;;;;10.10;6.97;;;;;;;;;;5067895;28;20047;-81
2022/04/17 08:24:30;;;;;;;10.50;7.35;;;;;;;;;;5069416;28;20037;-80
2022/04/17 08:26:58;;;;;;;11.88;7.20;;;;;;;;;;5069754;28;20510;-79
2022/04/17 08:29:24;;;;;;;11.70;7.22;;;;;;;;;;5072373;28;20076;-80
2022/04/17 08:31:50;;;;;;;9.90;7.35;;;;;;;;;;5066964;28;20041;-78
2022/04/17 08:34:16;;;;;;;10.70;6.85;;;;;;;;;;5060667;28;20049;-77
2022/04/17 08:36:42;;;;;;;10.93;7.90;;;;;;;;;;5064668;28;20040;-80
2022/04/17 08:39:08;;;;;;;10.00;7.20;;;;;;;;;;5066109;28;20033;-79
2022/04/17 08:41:34;;;;;;;10.05;5.93;;;;;;;;;;5049444;28;20036;-79
2022/04/17 08:44:00;;;;;;;10.90;6.20;;;;;;;;;;5067424;28;20071;-80
2022/04/17 08:46:27;;;;;;;10.30;6.10;;;;;;;;;;5068083;28;20037;-78
2022/04/17 08:48:53;;;;;;;10.20;6.60;;;;;;;;;;5064041;28;20042;-78
2022/04/17 08:51:21;;;;;;;10.45;6.40;;;;;;;;;;5064539;28;20061;-78
2022/04/17 08:53:48;;;;;;;9.52;6.10;;;;;;;;;;5068567;28;20126;-80
2022/04/17 08:56:14;;;;;;;9.60;5.97;;;;;;;;;;5067672;28;20037;-79
2022/04/17 08:58:40;;;;;;;11.25;6.53;;;;;;;;;;5064504;28;20049;-79
2022/04/17 09:01:06;;;;;;;10.10;5.90;;;;;;;;;;5064195;28;20037;-80
2022/04/17 09:03:32;;;;;;;10.52;6.55;;;;;;;;;;5045750;28;20037;-79
2022/04/17 09:05:59;;;;;;;9.85;6.22;;;;;;;;;;5057427;28;20088;-79
2022/04/17 09:08:25;;;;;;;11.73;6.85;;;;;;;;;;5064889;28;20418;-80
2022/04/17 09:10:54;;;;;;;10.00;6.20;;;;;;;;;;5061283;28;20053;-79
2022/04/17 09:13:29;;;;;;;9.48;7.18;;;;;;;;;;5063128;28;20051;-80
2022/04/17 09:15:56;;;;;;;10.32;6.10;;;;;;;;;;5065974;28;20045;-79
2022/04/17 09:18:22;;;;;;;8.35;5.55;;;;;;;;;;5068432;28;20037;-80
2022/04/17 09:20:48;;;;;;;9.77;5.22;;;;;;;;;;5068519;28;20100;-80
2022/04/17 09:23:15;;;;;;;8.30;5.75;;;;;;;;;;5066266;28;20041;-80
2022/04/17 09:25:45;;;;;;;9.23;5.68;;;;;;;;;;5065243;28;20083;-81
2022/04/17 09:28:12;;;;;;;7.50;4.43;;;;;;;;;;5049176;28;20047;-80
2022/04/17 09:30:39;;;;;;;8.57;4.30;;;;;;;;;;5062417;28;20379;-79
2022/04/17 09:33:17;;;;;;;8.18;4.88;;;;;;;;;;5056314;28;20045;-80
2022/04/17 09:35:55;;;;;;;9.30;5.40;;;;;;;;;;5064178;28;20048;-79
2022/04/17 09:38:26;;;;;;;9.23;5.13;;;;;;;;;;5062531;28;20048;-78
2022/04/17 09:40:52;;;;;;;8.55;5.00;;;;;;;;;;5066805;28;20037;-78
2022/04/17 09:43:18;;;;;;;9.23;5.50;;;;;;;;;;5063016;28;20103;-79
2022/04/17 09:46:00;;;;;;;9.73;4.93;;;;;;;;;;5067169;28;20044;-80
2022/04/17 09:48:43;;;;;;;9.23;4.97;;;;;;;;;;5046921;28;20041;-80
2022/04/17 09:51:25;;;;;;;10.52;5.50;;;;;;;;;;5066112;28;20045;-79
2022/04/17 09:54:06;;;;;;;9.85;4.95;;;;;;;;;;5057042;28;20045;-79
2022/04/17 09:56:33;;;;;;;;;;;;;;;;;;5064304;28;20128;-79
2022/04/17 09:58:59;;;;;;;10.43;5.20;;;;;;;;;;5060346;28;19927;-79
2022/04/17 10:01:27;;;;;;;10.07;5.40;;;;;;;;;;5057283;28;20037;-79
2022/04/17 10:03:54;;;;;;;8.18;5.00;;;;;;;;;;5057097;28;20051;-78
2022/04/17 10:06:23;;;;;;;7.50;4.72;;;;;;;;;;5062400;28;20049;-79
2022/04/17 10:08:50;;;;;;;8.25;4.95;;;;;;;;;;5057858;28;20049;-79
2022/04/17 10:11:16;;;;;;;8.25;5.28;;;;;;;;;;5067205;28;20576;-79
2022/04/17 10:13:45;;;;;;;7.05;4.35;;;;;;;;;;5064192;28;20045;-79
2022/04/17 10:16:12;;;;;;;8.30;4.93;;;;;;;;;;5063019;28;20100;-79
2022/04/17 10:18:39;;;;;;;8.25;5.00;;;;;;;;;;5062077;28;20037;-81
2022/04/17 10:21:06;;;;;;;8.07;5.03;;;;;;;;;;5062819;28;20048;-80
2022/04/17 10:23:34;;;;;;;7.30;4.70;;;;;;;;;;5062112;28;20068;-79
2022/04/17 10:26:02;;;;;;;6.90;4.97;;;;;;;;;;5062297;28;20499;-79
2022/04/17 10:28:30;;;;;;;9.25;5.13;;;;;;;;;;5044565;28;20069;-78
2022/04/17 10:31:14;;;;;;;7.82;4.55;;;;;;;;;;5064469;28;20098;-79
2022/04/17 10:34:07;;;;;;;7.68;4.75;;;;;;;;;;5060661;28;20136;-78
2022/04/17 10:36:33;;;;;;;9.68;4.95;;;;;;;;;;5064995;28;20387;-80
2022/04/17 10:39:14;;;;;;;7.78;4.90;;;;;;;;;;5056844;28;20045;-80
2022/04/17 10:41:41;;;;;;;8.68;5.65;;;;;;;;;;5063685;28;20402;-78
2022/04/17 10:44:09;;;;;;;9.77;5.35;;;;;;;;;;5062978;28;20041;-79
2022/04/17 10:46:46;;;;;;;8.50;5.75;;;;;;;;;;5064083;28;20410;-79
2022/04/17 10:49:12;;;;;;;7.80;5.22;;;;;;;;;;5060447;28;20048;-78
2022/04/17 10:51:38;;;;;;;9.07;5.65;;;;;;;;;;5063203;28;20105;-79
2022/04/17 10:54:10;;;;;;;8.00;5.20;;;;;;;;;;5062511;28;20053;-80
2022/04/17 10:56:40;;;;;;;7.85;5.22;;;;;;;;;;5065260;28;20091;-81
2022/04/17 10:59:16;;;;;;;7.53;4.90;;;;;;;;;;5061305;28;20043;-81
2022/04/17 11:01:45;;;;;;;8.73;5.43;;;;;;;;;;5045855;28;20037;-81
2022/04/17 11:04:15;;;;;;;9.65;5.60;;;;;;;;;;5063212;28;20041;-80
2022/04/17 11:06:42;;;;;;;9.05;5.53;;;;;;;;;;5061128;28;20040;-81
2022/04/17 11:09:24;;;;;;;9.50;5.72;;;;;;;;;;5061998;28;20071;-80
2022/04/17 11:11:51;;;;;;;8.88;5.43;;;;;;;;;;5045632;28;20402;-81
2022/04/17 11:14:19;;;;;;;8.77;5.25;;;;;;;;;;5064566;28;20049;-80
2022/04/17 11:16:48;;;;;;;9.20;5.10;;;;;;;;;;5066270;28;20071;-80
2022/04/17 11:19:16;;;;;;;7.47;4.70;;;;;;;;;;5065904;28;20068;-81
2022/04/17 11:21:52;;;;;;;8.80;5.22;;;;;;;;;;5065645;28;20044;-82
2022/04/17 11:24:19;;;;;;;8.55;4.78;;;;;;;;;;5063926;28;20036;-79
2022/04/17 11:27:06;;;;;;;8.48;5.00;;;;;;;;;;5064047;28;20071;-80
2022/04/17 11:29:38;;;;;;;8.82;4.22;;;;;;;;;;5059816;28;20459;-79
2022/04/17 11:32:19;;;;;;;7.05;4.25;;;;;;;;;;5066181;28;20053;-78
2022/04/17 11:34:54;;;;;;;;;;;;;;;;;;5060100;28;20045;-80
2022/04/17 11:37:24;;;;;;;7.93;4.53;;;;;;;;;;5060963;28;19928;-80
2022/04/17 11:39:51;;;;;;;7.03;4.50;;;;;;;;;;5044396;28;20041;-81
2022/04/17 11:42:17;;;;;;;7.07;4.43;;;;;;;;;;5053576;28;20387;-81
2022/04/17 11:44:44;;;;;;;8.30;4.32;;;;;;;;;;5066019;28;20033;-81
2022/04/17 11:47:16;;;;;;;6.55;4.47;;;;;;;;;;5049380;28;20091;-81
2022/04/17 11:49:43;;;;;;;8.98;4.65;;;;;;;;;;5063733;28;20055;-80
2022/04/17 11:52:13;;;;;;;7.60;4.32;;;;;;;;;;5045537;28;20491;-81
2022/04/17 11:54:39;;;;;;;7.55;4.65;;;;;;;;;;5068186;28;20044;-80
2022/04/17 11:57:05;;;;;;;7.07;4.82;;;;;;;;;;5073558;28;20074;-81
2022/04/17 11:59:44;;;;;;;7.35;4.95;;;;;;;;;;5046053;28;20037;-80
2022/04/17 12:02:16;;;;;;;8.68;4.50;;;;;;;;;;5062468;28;20049;-81
2022/04/17 12:04:42;;;;;;;8.98;4.55;;;;;;;;;;5046404;28;20049;-80
2022/04/17 12:07:09;;;;;;;7.78;4.90;;;;;;;;;;5045465;28;20056;-80
2022/04/17 12:09:35;;;;;;;9.45;5.43;;;;;;;;;;5065751;28;20049;-82
2022/04/17 12:12:01;;;;;;;9.27;5.00;;;;;;;;;;5064154;28;20052;-82
2022/04/17 12:14:31;;;;;;;8.57;5.18;;;;;;;;;;5058892;28;20552;-81
2022/04/17 12:17:00;;;;;;;9.18;5.60;;;;;;;;;;5061226;28;20094;-81
2022/04/17 12:19:26;;;;;;;9.10;5.00;;;;;;;;;;5061812;28;20045;-80
2022/04/17 12:21:53;;;;;;;7.90;5.47;;;;;;;;;;5061841;28;20045;-80
2022/04/17 12:24:21;;;;;;;8.63;5.30;;;;;;;;;;5059246;28;20056;-80
2022/04/17 12:26:49;;;;;;;9.43;5.22;;;;;;;;;;5065173;28;20048;-81
2022/04/17 12:29:15;;;;;;;8.80;5.03;;;;;;;;;;5064496;28;20049;-80
2022/04/17 12:31:42;;;;;;;8.00;4.80;;;;;;;;;;5062324;28;20071;-81
2022/04/17 12:34:09;;;;;;;8.20;5.07;;;;;;;;;;5060821;28;20053;-81
2022/04/17 12:36:38;;;;;;;8.75;5.05;;;;;;;;;;5066124;28;20053;-81
2022/04/17 12:39:05;;;;;;;8.10;4.78;;;;;;;;;;5063179;28;20071;-80
2022/04/17 12:42:00;;;;;;;9.25;5.18;;;;;;;;;;5064270;28;20494;-80
2022/04/17 12:44:34;;;;;;;8.02;5.18;;;;;;;;;;5041763;28;20049;-81
2022/04/17 12:47:13;;;;;;;8.77;5.15;;;;;;;;;;5047129;28;20079;-80
2022/04/17 12:49:39;;;;;;;8.25;5.25;;;;;;;;;;5064322;28;20126;-81
2022/04/17 12:52:06;;;;;;;8.43;5.43;;;;;;;;;;5064104;28;20045;-80
2022/04/17 12:54:32;;;;;;;8.70;5.82;;;;;;;;;;5063274;28;20046;-80
2022/04/17 12:57:10;;;;;;;9.57;5.28;;;;;;;;;;5048143;28;20057;-80
2022/04/17 12:59:41;;;;;;;8.18;5.18;;;;;;;;;;5061491;28;20048;-81
2022/04/17 13:02:14;;;;;;;9.18;5.32;;;;;;;;;;5064739;28;20044;-80
2022/04/17 13:04:41;;;;;;;8.00;5.15;;;;;;;;;;5065048;28;20051;-81
2022/04/17 13:07:13;;;;;;;8.38;5.40;;;;;;;;;;5063705;28;20049;-82
2022/04/17 13:09:48;;;;;;;9.52;5.00;;;;;;;;;;5065850;28;20037;-81
2022/04/17 13:12:29;;;;;;;10.00;5.80;;;;;;;;;;5046979;28;20060;-81
2022/04/17 13:14:56;;;;;;;9.33;5.33;;;;;;;;;;5065323;28;20063;-81
2022/04/17 13:17:22;;;;;;;9.50;5.47;;;;;;;;;;5054799;28;20422;-81
2022/04/17 13:19:48;;;;;;;8.18;5.20;;;;;;;;;;5061381;28;20053;-82
2022/04/17 13:22:14;;;;;;;8.18;5.28;;;;;;;;;;5052855;28;20517;-80
2022/04/17 13:24:43;;;;;;;9.02;5.00;;;;;;;;;;5061167;28;20048;-81
2022/04/17 13:27:10;;;;;;;7.90;5.18;;;;;;;;;;5043282;28;20041;-81
2022/04/17 13:29:36;;;;;;;8.27;4.80;;;;;;;;;;5056841;28;20040;-81
2022/04/17 13:32:03;;;;;;;8.05;4.55;;;;;;;;;;5055481;28;20057;-80
2022/04/17 13:34:33;;;;;;;8.43;4.85;;;;;;;;;;5057898;28;20117;-79
2022/04/17 13:39:44;;;;;;;7.55;4.57;;;;;;;;;;5050007;28;20060;-80
2022/04/17 13:42:11;;;;;;;7.80;4.72;;;;;;;;;;5054586;28;20049;-81
2022/04/17 13:44:40;;;;;;;8.05;4.47;;;;;;;;;;5039150;28;20060;-81
2022/04/17 13:47:06;;;;;;;8.30;4.10;;;;;;;;;;5060209;28;20182;-81
2022/04/17 13:49:32;;;;;;;7.28;4.30;;;;;;;;;;5058720;28;20095;-79
2022/04/17 13:51:59;;;;;;;8.23;4.32;;;;;;;;;;5056406;28;20478;-80
2022/04/17 13:54:25;;;;;;;8.13;4.45;;;;;;;;;;5060805;28;20045;-81
2022/04/17 13:56:51;;;;;;;7.05;4.00;;;;;;;;;;5061982;28;20049;-81
2022/04/17 13:59:18;;;;;;;7.72;4.03;;;;;;;;;;5062957;28;20057;-80
2022/04/17 14:01:44;;;;;;;6.47;3.60;;;;;;;;;;5064933;28;20124;-80
2022/04/17 14:04:10;;;;;;;6.53;3.60;;;;;;;;;;5061569;28;20111;-80
2022/04/17 14:06:40;;;;;;;6.65;3.78;;;;;;;;;;5062106;28;20049;-81
2022/04/17 14:09:06;;;;;;;6.57;3.80;;;;;;;;;;5065552;28;20139;-80
2022/04/17 14:11:33;;;;;;;7.30;3.25;;;;;;;;;;5066121;28;20067;-81
2022/04/17 14:13:59;;;;;;;6.53;3.47;;;;;;;;;;5044583;28;20044;-81
2022/04/17 14:16:25;;;;;;;7.03;3.53;;;;;;;;;;5063697;28;20549;-81
2022/04/17 14:18:51;;;;;;;6.97;2.90;;;;;;;;;;5066929;28;20071;-81
2022/04/17 14:21:17;;;;;;;6.00;3.08;;;;;;;;;;5062789;28;20072;-81
2022/04/17 14:23:43;;;;;;;6.18;3.03;;;;;;;;;;5055884;28;20053;-81
2022/04/17 14:26:09;;;;;;;6.30;2.92;;;;;;;;;;5062845;28;20131;-81
2022/04/17 14:28:36;;;;;;;5.90;3.00;;;;;;;;;;5062765;28;20041;-80
2022/04/17 14:31:03;;;;;;;6.50;2.78;;;;;;;;;;5058274;28;20037;-80
2022/04/17 14:33:29;;;;;;;5.57;3.00;;;;;;;;;;5057644;28;20087;-80
2022/04/17 14:35:57;;;;;;;5.90;2.70;;;;;;;;;;5037738;28;20556;-81
2022/04/17 14:38:26;;;;;;;7.30;3.50;;;;;;;;;;5060247;28;20033;-81
2022/04/17 14:40:53;;;;;;;5.38;2.78;;;;;;;;;;5048809;28;20052;-80
2022/04/17 14:43:19;;;;;;;5.80;2.85;;;;;;;;;;5055848;28;20037;-80
2022/04/17 14:45:49;;;;;;;6.25;3.03;;;;;;;;;;5061692;28;20045;-82
2022/04/17 14:48:15;;;;;;;6.47;2.90;;;;;;;;;;5059040;28;20134;-81
2022/04/17 14:50:42;;;;;;;6.13;2.40;;;;;;;;;;5049177;28;20041;-80
2022/04/17 14:53:08;;;;;;;6.88;2.80;;;;;;;;;;5059695;28;20044;-82